Time;durP1;ratioP1;P1;durP2;ratioP2;P2;SDS_P1;SDS_P2;PMS_P1;PMS_P2;Temp;Humidity;BMP_temperature;BMP_pressure;BME280_temperature;BME280_humidity;BME280_pressure;Samples;Min_cycle;Max_cycle;Signal;HPM_P1;HPM_P2
2023/11/30 00:00:17;;;;;;;7.13;6.22;;;0.00;1.00;;;;;;5053121;28;20287;-80
2023/11/30 00:02:44;;;;;;;7.63;5.90;;;0.00;1.00;;;;;;5060100;28;20243;-79
2023/11/30 00:05:11;;;;;;;6.13;5.53;;;0.00;1.00;;;;;;5072585;28;20841;-80
2023/11/30 00:07:38;;;;;;;6.60;5.90;;;0.00;1.00;;;;;;5061446;28;20289;-81
2023/11/30 00:10:05;;;;;;;6.78;5.57;;;0.00;1.00;;;;;;5051537;28;20237;-74
2023/11/30 00:12:34;;;;;;;7.72;6.57;;;0.00;1.00;;;;;;5055961;28;20252;-78
2023/11/30 00:15:01;;;;;;;6.10;5.45;;;0.00;1.00;;;;;;5061486;28;20263;-80
2023/11/30 00:17:28;;;;;;;6.28;5.45;;;-0.10;1.00;;;;;;5072022;28;20912;-78
2023/11/30 00:19:55;;;;;;;6.65;5.63;;;-0.20;1.00;;;;;;5054484;28;20745;-80
2023/11/30 00:22:22;;;;;;;5.72;4.82;;;-0.20;1.00;;;;;;5062905;28;20251;-81
2023/11/30 00:24:49;;;;;;;7.65;6.35;;;-0.20;1.00;;;;;;5056850;28;20229;-78
2023/11/30 00:27:16;;;;;;;5.50;4.97;;;-0.30;1.00;;;;;;5064404;28;20256;-78
2023/11/30 00:29:44;;;;;;;5.95;5.30;;;-0.30;1.00;;;;;;5058382;28;20249;-81
2023/11/30 00:32:11;;;;;;;6.43;5.68;;;-0.30;1.00;;;;;;5052889;28;21088;-75
2023/11/30 00:34:38;;;;;;;7.00;5.72;;;-0.40;1.00;;;;;;5058607;28;20265;-76
2023/11/30 00:37:05;;;;;;;5.90;5.30;;;-0.50;1.00;;;;;;5052515;28;20334;-76
2023/11/30 00:39:33;;;;;;;7.72;6.07;;;-0.50;1.00;;;;;;5069657;28;20331;-78
2023/11/30 00:42:02;;;;;;;7.28;6.30;;;-0.50;1.00;;;;;;5071377;28;20240;-76
2023/11/30 00:44:29;;;;;;;6.25;5.70;;;-0.60;1.00;;;;;;5067311;28;20335;-76
2023/11/30 00:46:58;;;;;;;7.68;6.70;;;-0.60;1.00;;;;;;5064783;28;20244;-77
2023/11/30 00:49:25;;;;;;;7.78;6.50;;;-0.60;1.00;;;;;;5070474;28;20290;-76
2023/11/30 00:51:52;;;;;;;6.70;6.10;;;-0.70;1.00;;;;;;5068976;28;20985;-78
2023/11/30 00:54:19;;;;;;;7.85;6.70;;;-0.70;1.00;;;;;;5070163;28;20233;-76
2023/11/30 00:56:45;;;;;;;6.57;5.97;;;-0.70;1.00;;;;;;5065077;28;20243;-75
2023/11/30 00:59:12;;;;;;;8.40;7.07;;;-0.70;1.00;;;;;;5051791;28;20328;-76
2023/11/30 01:01:39;;;;;;;8.27;7.00;;;-0.70;1.00;;;;;;5067694;28;20232;-74
2023/11/30 01:04:08;;;;;;;8.75;6.75;;;-0.70;1.00;;;;;;5061301;28;20322;-76
2023/11/30 01:06:34;;;;;;;7.18;6.47;;;-0.70;1.00;;;;;;5065643;28;20347;-77
2023/11/30 01:09:01;;;;;;;8.45;6.35;;;-0.70;1.00;;;;;;5072484;28;20747;-77
2023/11/30 01:11:30;;;;;;;7.75;6.35;;;-0.70;1.00;;;;;;5068829;28;20241;-76
2023/11/30 01:13:57;;;;;;;11.15;7.18;;;-0.80;1.00;;;;;;5069895;28;20242;-76
2023/11/30 01:16:24;;;;;;;8.80;7.30;;;-0.80;1.00;;;;;;5064858;28;20240;-76
2023/11/30 01:18:51;;;;;;;9.23;7.70;;;-0.80;1.00;;;;;;5061945;28;20237;-76
2023/11/30 01:21:20;;;;;;;9.85;8.40;;;-0.80;1.00;;;;;;5050235;28;20339;-76
2023/11/30 01:23:46;;;;;;;10.45;8.25;;;-0.80;1.00;;;;;;5062230;28;20232;-70
2023/11/30 01:26:13;;;;;;;10.32;7.10;;;-0.90;1.00;;;;;;5061457;28;20250;-69
2023/11/30 01:28:40;;;;;;;8.57;7.30;;;-0.90;1.00;;;;;;5064458;28;22102;-70
2023/11/30 01:31:08;;;;;;;9.95;8.20;;;-0.90;1.00;;;;;;5050628;28;20290;-72
2023/11/30 01:33:36;;;;;;;9.20;7.55;;;-0.90;1.00;;;;;;5068040;28;20248;-74
2023/11/30 01:36:03;;;;;;;9.10;7.82;;;-0.90;1.00;;;;;;5063229;28;20241;-69
2023/11/30 01:38:32;;;;;;;9.45;8.27;;;-0.90;1.00;;;;;;5069336;28;20237;-71
2023/11/30 01:40:59;;;;;;;8.93;8.02;;;-0.90;1.00;;;;;;5055842;28;20296;-70
2023/11/30 01:43:27;;;;;;;9.35;7.85;;;-0.80;1.00;;;;;;5053453;28;20233;-71
2023/11/30 01:45:54;;;;;;;11.27;10.07;;;-0.80;1.00;;;;;;5066876;28;20617;-72
2023/11/30 01:48:22;;;;;;;11.50;9.55;;;-0.70;1.00;;;;;;5057022;28;20268;-71
2023/11/30 01:50:49;;;;;;;12.30;9.80;;;-0.70;1.00;;;;;;5057914;28;20240;-77
2023/11/30 01:53:16;;;;;;;9.23;7.88;;;-0.60;1.00;;;;;;5048784;28;20244;-74
2023/11/30 01:55:45;;;;;;;11.38;8.60;;;-0.60;1.00;;;;;;5051569;28;20915;-72
2023/11/30 01:58:14;;;;;;;12.18;9.40;;;-0.60;1.00;;;;;;5059951;28;20249;-72
2023/11/30 02:00:41;;;;;;;11.57;9.82;;;-0.60;1.00;;;;;;5060340;28;20248;-72
2023/11/30 02:03:09;;;;;;;11.32;8.50;;;-0.60;1.00;;;;;;5058951;28;20317;-72
2023/11/30 02:05:36;;;;;;;11.35;8.50;;;-0.50;1.00;;;;;;5066589;28;20279;-72
2023/11/30 02:08:03;;;;;;;11.13;8.68;;;-0.50;1.00;;;;;;5060991;28;20241;-72
2023/11/30 02:10:30;;;;;;;10.98;8.90;;;-0.50;1.00;;;;;;5050562;28;20400;-72
2023/11/30 02:12:59;;;;;;;11.05;8.68;;;-0.40;1.00;;;;;;5058126;28;20324;-72
2023/11/30 02:15:26;;;;;;;11.75;8.90;;;-0.40;1.00;;;;;;5070061;28;20295;-72
2023/11/30 02:17:52;;;;;;;11.00;8.80;;;-0.40;1.00;;;;;;5057492;28;20240;-72
2023/11/30 02:20:19;;;;;;;12.43;8.82;;;-0.30;1.00;;;;;;5061896;28;20260;-72
2023/11/30 02:22:48;;;;;;;10.00;8.43;;;-0.40;1.00;;;;;;5050531;28;20281;-71
2023/11/30 02:25:17;;;;;;;10.68;8.38;;;-0.40;1.00;;;;;;5049531;28;20273;-71
2023/11/30 02:27:44;;;;;;;11.60;9.57;;;-0.40;1.00;;;;;;5048581;28;20244;-72
2023/11/30 02:30:13;;;;;;;9.50;7.55;;;-0.30;1.00;;;;;;5061479;28;21084;-70
2023/11/30 02:32:40;;;;;;;11.05;9.20;;;-0.40;1.00;;;;;;5064339;28;20237;-74
2023/11/30 02:35:08;;;;;;;10.25;8.95;;;-0.50;1.00;;;;;;5058032;28;20264;-71
2023/11/30 02:37:35;;;;;;;14.23;9.60;;;-0.50;1.00;;;;;;5058591;28;20454;-72
2023/11/30 02:40:04;;;;;;;12.35;8.55;;;-0.60;1.00;;;;;;5050228;28;21148;-72
2023/11/30 02:42:32;;;;;;;12.30;8.77;;;-0.70;1.00;;;;;;5052771;28;20798;-75
2023/11/30 02:44:59;;;;;;;10.82;8.52;;;-0.70;1.00;;;;;;5052343;28;20328;-72
2023/11/30 02:47:26;;;;;;;11.45;9.30;;;-0.70;1.00;;;;;;5065788;28;20241;-71
2023/11/30 02:49:53;;;;;;;10.77;8.70;;;-0.70;1.00;;;;;;5012797;28;1542732;-73
2023/11/30 02:52:20;;;;;;;10.73;9.13;;;-0.70;1.00;;;;;;5055597;28;20271;-78
2023/11/30 02:54:48;;;;;;;12.68;10.02;;;-0.70;1.00;;;;;;5050397;28;20264;-81
2023/11/30 02:57:16;;;;;;;12.07;9.35;;;-0.60;1.00;;;;;;5051849;28;20237;-73
2023/11/30 02:59:43;;;;;;;10.15;8.57;;;-0.60;1.00;;;;;;5059818;28;20298;-76
2023/11/30 03:02:11;;;;;;;12.00;9.18;;;-0.60;1.00;;;;;;5072091;28;20239;-77
2023/11/30 03:04:38;;;;;;;11.10;8.90;;;-0.50;1.00;;;;;;5057035;28;20751;-78
2023/11/30 03:07:05;;;;;;;12.30;9.40;;;-0.50;1.00;;;;;;5048722;28;20356;-80
2023/11/30 03:09:32;;;;;;;11.70;8.88;;;-0.60;1.00;;;;;;5061674;28;20338;-74
2023/11/30 03:11:59;;;;;;;9.52;7.72;;;-0.70;1.00;;;;;;5052058;28;20234;-81
2023/11/30 03:14:27;;;;;;;10.65;8.80;;;-0.70;1.00;;;;;;5051640;28;20322;-81
2023/11/30 03:16:54;;;;;;;10.20;7.93;;;-0.70;1.00;;;;;;5054833;28;20241;-80
2023/11/30 03:19:21;;;;;;;10.75;8.75;;;-0.70;1.00;;;;;;5054509;28;20249;-78
2023/11/30 03:21:50;;;;;;;12.27;9.57;;;-0.70;1.00;;;;;;5051496;28;20432;-75
2023/11/30 03:24:18;;;;;;;11.25;9.68;;;-0.80;1.00;;;;;;5057617;28;21039;-81
2023/11/30 03:26:46;;;;;;;11.68;8.38;;;-0.80;1.00;;;;;;5074146;28;20289;-79
2023/11/30 03:29:12;;;;;;;12.75;10.00;;;-0.90;1.00;;;;;;5064852;28;20240;-80
2023/11/30 03:31:41;;;;;;;12.27;9.68;;;-0.90;1.00;;;;;;5057718;28;20257;-73
2023/11/30 03:34:08;;;;;;;12.77;9.75;;;-0.90;1.00;;;;;;5068693;28;20237;-77
2023/11/30 03:36:35;;;;;;;13.57;10.68;;;-1.00;1.00;;;;;;5059893;28;20731;-78
2023/11/30 03:39:02;;;;;;;14.32;10.27;;;-1.00;1.00;;;;;;5069907;28;20453;-80
2023/11/30 03:41:29;;;;;;;12.85;9.40;;;-1.10;1.00;;;;;;5061988;28;20264;-80
2023/11/30 03:43:56;;;;;;;10.85;9.57;;;-1.10;1.00;;;;;;5056339;28;20239;-76
2023/11/30 03:46:25;;;;;;;12.77;9.40;;;-1.10;1.00;;;;;;5056788;28;20733;-81
2023/11/30 03:48:54;;;;;;;13.48;10.55;;;-1.10;1.00;;;;;;5062891;28;20727;-81
2023/11/30 03:51:21;;;;;;;12.27;9.52;;;-1.10;1.00;;;;;;5061063;28;20324;-79
2023/11/30 03:53:48;;;;;;;12.70;9.93;;;-1.10;1.00;;;;;;5074244;28;20402;-79
2023/11/30 03:56:15;;;;;;;12.50;9.68;;;-1.00;1.00;;;;;;5073750;28;20240;-81
2023/11/30 03:58:42;;;;;;;13.95;11.18;;;-1.00;1.00;;;;;;5075565;28;20331;-77
2023/11/30 04:01:09;;;;;;;12.40;8.77;;;-1.10;1.00;;;;;;5072134;28;20241;-81
2023/11/30 04:03:36;;;;;;;12.38;9.70;;;-1.10;1.00;;;;;;5063547;28;20314;-76
2023/11/30 04:06:04;;;;;;;12.73;9.45;;;-1.10;1.00;;;;;;5049366;28;20414;-75
2023/11/30 04:08:33;;;;;;;13.32;9.25;;;-1.10;1.00;;;;;;5064554;28;20241;-75
2023/11/30 04:11:00;;;;;;;13.52;10.55;;;-1.10;1.00;;;;;;5070385;28;21020;-75
2023/11/30 04:13:28;;;;;;;13.65;9.68;;;-1.10;1.00;;;;;;5056828;28;21090;-77
2023/11/30 04:15:55;;;;;;;12.82;10.98;;;-1.10;1.00;;;;;;5058642;28;20428;-76
2023/11/30 04:18:22;;;;;;;13.38;11.45;;;-1.10;1.00;;;;;;5055763;28;20229;-74
2023/11/30 04:20:49;;;;;;;13.10;9.75;;;-1.10;1.00;;;;;;5059848;28;20225;-75
2023/11/30 04:23:17;;;;;;;15.10;10.38;;;-1.10;1.00;;;;;;5070449;28;20729;-76
2023/11/30 04:25:45;;;;;;;12.73;9.90;;;-1.20;1.00;;;;;;5069621;28;20236;-76
2023/11/30 04:28:12;;;;;;;13.93;9.40;;;-1.30;1.00;;;;;;5070474;28;20727;-75
2023/11/30 04:30:39;;;;;;;15.00;10.77;;;-1.30;1.00;;;;;;5068147;28;20295;-75
2023/11/30 04:33:05;;;;;;;14.02;10.05;;;-1.30;1.00;;;;;;5071764;28;20306;-75
2023/11/30 04:35:32;;;;;;;14.93;11.10;;;-1.40;1.00;;;;;;5071064;28;20256;-76
2023/11/30 04:38:02;;;;;;;15.00;11.30;;;-1.40;1.00;;;;;;5053932;28;20365;-75
2023/11/30 04:40:32;;;;;;;13.30;9.75;;;-1.40;1.00;;;;;;5064850;28;20228;-75
2023/11/30 04:43:00;;;;;;;14.02;10.90;;;-1.30;1.00;;;;;;5061017;28;20238;-77
2023/11/30 04:45:26;;;;;;;12.45;10.70;;;-1.30;1.00;;;;;;5062289;28;20233;-78
2023/11/30 04:47:54;;;;;;;14.10;10.40;;;-1.30;1.00;;;;;;5064599;28;20233;-77
2023/11/30 04:50:20;;;;;;;14.52;11.88;;;-1.40;1.00;;;;;;5067472;28;20243;-75
2023/11/30 04:52:47;;;;;;;14.88;10.00;;;-1.40;1.00;;;;;;5067495;28;20322;-76
2023/11/30 04:55:15;;;;;;;13.90;10.80;;;-1.60;1.00;;;;;;5063474;28;20245;-76
2023/11/30 04:57:43;;;;;;;13.70;10.20;;;-1.80;1.00;;;;;;5047425;28;20237;-76
2023/11/30 05:00:11;;;;;;;14.88;10.75;;;-1.90;1.00;;;;;;5071282;28;20263;-75
2023/11/30 05:02:38;;;;;;;14.02;11.20;;;-1.80;1.00;;;;;;5061076;28;20382;-76
2023/11/30 05:05:07;;;;;;;16.80;11.35;;;-1.80;1.00;;;;;;5062506;28;20248;-76
2023/11/30 05:07:35;;;;;;;14.40;11.48;;;-1.90;1.00;;;;;;5065343;28;20236;-75
2023/11/30 05:10:05;;;;;;;17.67;11.25;;;-1.90;1.00;;;;;;5068344;28;20331;-76
2023/11/30 05:12:32;;;;;;;15.32;11.35;;;-1.90;1.00;;;;;;5071395;28;21079;-77
2023/11/30 05:15:00;;;;;;;14.00;10.70;;;-1.90;1.00;;;;;;5067578;28;20265;-78
2023/11/30 05:17:27;;;;;;;12.35;9.60;;;-1.90;1.00;;;;;;5070242;28;20225;-74
2023/11/30 05:19:54;;;;;;;13.73;11.15;;;-1.90;1.00;;;;;;5076056;28;20227;-79
2023/11/30 05:22:21;;;;;;;15.20;11.50;;;-1.90;1.00;;;;;;5075369;28;20881;-79
2023/11/30 05:24:50;;;;;;;18.35;12.40;;;-1.90;1.00;;;;;;5070868;28;21008;-74
2023/11/30 05:27:17;;;;;;;20.90;12.57;;;-1.90;1.00;;;;;;5073945;28;21032;-81
2023/11/30 05:29:44;;;;;;;15.15;12.20;;;-2.00;1.00;;;;;;5065023;28;20261;-80
2023/11/30 05:32:12;;;;;;;16.23;11.13;;;-2.00;1.00;;;;;;5064452;28;20240;-76
2023/11/30 05:34:39;;;;;;;15.90;11.52;;;-2.00;1.00;;;;;;5061099;28;20252;-80
2023/11/30 05:37:06;;;;;;;17.52;12.35;;;-2.00;1.00;;;;;;5058401;28;20256;-77
2023/11/30 05:39:36;;;;;;;19.15;11.93;;;-2.00;1.00;;;;;;5057321;28;20324;-79
2023/11/30 05:42:04;;;;;;;16.42;12.13;;;-2.00;1.00;;;;;;5063028;28;20268;-74
2023/11/30 05:44:31;;;;;;;17.08;12.75;;;-2.00;1.00;;;;;;5078308;28;20240;-79
2023/11/30 05:46:58;;;;;;;16.17;12.90;;;-2.00;1.00;;;;;;5070061;28;20242;-80
2023/11/30 05:49:26;;;;;;;18.45;13.05;;;-1.90;1.00;;;;;;5064783;28;20229;-79
2023/11/30 05:51:53;;;;;;;15.23;11.43;;;-1.90;1.00;;;;;;5063266;28;20293;-75
2023/11/30 05:54:20;;;;;;;19.00;15.50;;;-1.80;1.00;;;;;;5070957;28;20240;-77
2023/11/30 05:56:47;;;;;;;18.10;13.27;;;-1.80;1.00;;;;;;5069830;28;20244;-77
2023/11/30 05:59:15;;;;;;;21.33;16.08;;;-1.80;1.00;;;;;;5061219;28;20898;-82
2023/11/30 06:01:42;;;;;;;20.17;13.50;;;-1.80;1.00;;;;;;5079928;28;20292;-76
2023/11/30 06:04:11;;;;;;;19.60;12.32;;;-1.70;1.00;;;;;;5069578;28;20722;-75
2023/11/30 06:06:43;;;;;;;19.33;12.98;;;-1.60;1.00;;;;;;5059542;28;20241;-76
2023/11/30 06:09:15;;;;;;;19.90;13.98;;;-1.50;1.00;;;;;;5067727;28;20233;-75
2023/11/30 06:11:41;;;;;;;19.73;13.68;;;-1.50;1.00;;;;;;5067598;28;20300;-76
2023/11/30 06:14:09;;;;;;;15.23;13.20;;;-1.50;1.00;;;;;;5082728;28;20292;-80
2023/11/30 06:16:37;;;;;;;17.65;13.05;;;-1.40;1.00;;;;;;5092815;28;20266;-72
2023/11/30 06:19:03;;;;;;;21.20;13.60;;;-1.40;1.00;;;;;;5078111;28;20576;-80
2023/11/30 06:21:30;;;;;;;19.48;13.77;;;-1.40;1.00;;;;;;5065386;28;20283;-81
2023/11/30 06:23:59;;;;;;;20.70;13.55;;;-1.40;1.00;;;;;;5066655;28;20240;-78
2023/11/30 06:26:25;;;;;;;19.77;13.45;;;-1.40;1.00;;;;;;5076627;28;20239;-72
2023/11/30 06:28:52;;;;;;;21.23;15.75;;;-1.40;1.00;;;;;;5065529;28;20237;-73
2023/11/30 06:31:19;;;;;;;19.17;13.32;;;-1.40;1.00;;;;;;5055332;28;20239;-74
2023/11/30 06:33:47;;;;;;;19.45;13.77;;;-1.40;1.00;;;;;;5049012;28;20269;-71
2023/11/30 06:36:14;;;;;;;19.20;13.52;;;-1.40;1.00;;;;;;5050364;28;20323;-72
2023/11/30 06:38:42;;;;;;;18.67;13.10;;;-1.40;1.00;;;;;;5073623;28;20313;-73
2023/11/30 06:41:15;;;;;;;22.60;13.88;;;-1.40;1.00;;;;;;5062874;28;20744;-73
2023/11/30 06:43:43;;;;;;;20.65;13.15;;;-1.30;1.00;;;;;;5069252;28;20243;-71
2023/11/30 06:46:18;;;;;;;24.58;14.95;;;-1.30;1.00;;;;;;5059072;28;22342;-72
2023/11/30 06:48:46;;;;;;;19.83;14.20;;;-1.30;1.00;;;;;;5069346;28;20823;-73
2023/11/30 06:51:13;;;;;;;24.00;14.82;;;-1.30;1.00;;;;;;5068690;28;20909;-79
2023/11/30 06:53:41;;;;;;;20.75;14.35;;;-1.30;1.00;;;;;;5072255;28;20308;-74
2023/11/30 06:56:13;;;;;;;23.77;18.13;;;-1.30;1.00;;;;;;5066603;28;20237;-72
2023/11/30 06:58:40;;;;;;;24.95;15.13;;;-1.40;1.00;;;;;;5069349;28;20243;-72
2023/11/30 07:01:08;;;;;;;18.83;14.93;;;-1.40;1.00;;;;;;5065348;28;20300;-75
2023/11/30 07:03:36;;;;;;;20.92;14.82;;;-1.40;1.00;;;;;;5071497;28;20229;-70
2023/11/30 07:06:03;;;;;;;18.10;13.65;;;-1.40;1.00;;;;;;5069729;28;20229;-73
2023/11/30 07:09:37;;;;;;;20.92;14.93;;;-1.40;1.00;;;;;;5145048;27;20562;-73
2023/11/30 07:12:05;;;;;;;29.20;17.25;;;-1.50;1.00;;;;;;5134029;27;20244;-73
2023/11/30 07:14:34;;;;;;;24.33;16.15;;;-1.50;1.00;;;;;;5143585;27;20229;-71
2023/11/30 07:17:01;;;;;;;25.20;17.55;;;-1.60;1.00;;;;;;5156490;27;20990;-73
2023/11/30 07:19:31;;;;;;;41.22;18.88;;;-1.60;1.00;;;;;;5165826;27;20242;-74
2023/11/30 07:21:58;;;;;;;44.47;18.80;;;-1.60;1.00;;;;;;5148929;27;20233;-76
2023/11/30 07:24:25;;;;;;;44.10;17.75;;;-1.50;1.00;;;;;;5159899;27;20264;-75
2023/11/30 07:26:55;;;;;;;27.35;16.42;;;-1.50;1.00;;;;;;5158215;27;20242;-75
2023/11/30 07:29:22;;;;;;;28.15;17.75;;;-1.50;1.00;;;;;;5148067;27;20242;-72
2023/11/30 07:31:51;;;;;;;27.10;18.15;;;-1.40;1.00;;;;;;5140598;27;20464;-75
2023/11/30 07:34:21;;;;;;;24.00;16.30;;;-1.40;1.00;;;;;;5142853;27;20624;-75
2023/11/30 07:36:48;;;;;;;23.50;17.10;;;-1.40;1.00;;;;;;5141846;27;20234;-73
2023/11/30 07:39:16;;;;;;;25.02;15.93;;;-1.40;1.00;;;;;;5155986;27;20229;-72
2023/11/30 07:41:43;;;;;;;22.75;15.60;;;-1.50;1.00;;;;;;5164806;27;20241;-72
2023/11/30 07:44:14;;;;;;;24.67;15.65;;;-1.50;1.00;;;;;;5164825;27;20246;-73
2023/11/30 07:46:41;;;;;;;23.42;16.65;;;-1.50;1.00;;;;;;5158138;27;20234;-74
2023/11/30 07:49:09;;;;;;;26.48;14.82;;;-1.50;1.00;;;;;;5148521;27;20318;-72
2023/11/30 07:51:36;;;;;;;22.83;16.02;;;-1.60;1.00;;;;;;5141148;27;20349;-73
2023/11/30 07:54:03;;;;;;;23.90;15.75;;;-1.60;1.00;;;;;;5153965;27;20241;-79
2023/11/30 07:56:32;;;;;;;23.75;16.45;;;-1.60;1.00;;;;;;5155351;27;20928;-73
2023/11/30 07:58:59;;;;;;;23.33;15.93;;;-1.60;1.00;;;;;;5164792;27;20237;-70
2023/11/30 08:01:30;;;;;;;27.73;16.45;;;-1.50;1.00;;;;;;5167115;27;20240;-74
2023/11/30 08:03:57;;;;;;;26.52;17.95;;;-1.50;1.00;;;;;;5163660;27;21113;-73
2023/11/30 08:06:24;;;;;;;29.75;18.65;;;-1.50;1.00;;;;;;5141966;27;20736;-74
2023/11/30 08:08:53;;;;;;;21.23;15.75;;;-1.30;1.00;;;;;;5135579;27;20720;-74
2023/11/30 08:11:20;;;;;;;30.13;20.15;;;-1.20;1.00;;;;;;5144266;27;20290;-74
2023/11/30 08:13:47;;;;;;;24.58;16.85;;;-1.00;1.00;;;;;;5143657;27;21126;-74
2023/11/30 08:16:13;;;;;;;23.83;15.20;;;-1.00;1.00;;;;;;5152098;27;20230;-72
2023/11/30 08:18:41;;;;;;;24.97;15.60;;;-0.90;1.00;;;;;;5143421;27;20260;-73
2023/11/30 08:21:09;;;;;;;31.83;20.55;;;-0.70;1.00;;;;;;5127639;27;20494;-72
2023/11/30 08:23:37;;;;;;;22.40;15.55;;;-0.60;1.00;;;;;;5122219;27;20319;-72
2023/11/30 08:26:05;;;;;;;23.10;15.55;;;-0.60;1.00;;;;;;5123790;27;20243;-74
2023/11/30 08:28:32;;;;;;;24.52;16.77;;;-0.50;1.00;;;;;;5127943;27;20242;-72
2023/11/30 08:31:01;;;;;;;28.30;20.05;;;-0.50;1.00;;;;;;5127305;27;20352;-74
2023/11/30 08:33:28;;;;;;;26.52;17.20;;;-0.40;1.00;;;;;;5131823;27;20238;-73
2023/11/30 08:35:56;;;;;;;27.35;16.88;;;-0.40;1.00;;;;;;5137996;27;20387;-76
2023/11/30 08:38:23;;;;;;;23.75;16.67;;;-0.30;1.00;;;;;;5136493;27;20355;-75
2023/11/30 08:40:51;;;;;;;27.42;18.85;;;-0.20;1.00;;;;;;5147418;27;20238;-75
2023/11/30 08:43:19;;;;;;;27.17;19.67;;;-0.20;1.00;;;;;;5146207;27;20255;-72
2023/11/30 08:45:46;;;;;;;21.48;16.27;;;0.00;1.00;;;;;;5143942;27;20962;-73
2023/11/30 08:48:13;;;;;;;21.13;16.02;;;0.00;1.00;;;;;;5144709;27;20330;-73
2023/11/30 08:50:40;;;;;;;21.23;15.40;;;0.00;1.00;;;;;;5143747;27;20406;-74
2023/11/30 08:53:08;;;;;;;28.08;17.60;;;0.20;1.00;;;;;;5124223;27;21137;-75
2023/11/30 08:55:35;;;;;;;131.02;119.15;;;0.20;1.00;;;;;;5129034;27;20283;-73
2023/11/30 08:58:03;;;;;;;24.20;17.70;;;0.30;1.00;;;;;;5115014;27;20334;-73
2023/11/30 09:00:30;;;;;;;20.85;16.27;;;0.30;1.00;;;;;;5132597;27;20234;-74
2023/11/30 09:02:57;;;;;;;24.00;16.60;;;0.40;1.00;;;;;;5136364;27;20702;-71
2023/11/30 09:05:26;;;;;;;21.80;15.65;;;0.40;1.00;;;;;;5126672;27;20262;-72
2023/11/30 09:07:53;;;;;;;25.40;16.80;;;0.60;1.00;;;;;;5126535;27;20250;-74
2023/11/30 09:10:21;;;;;;;21.63;16.58;;;0.60;1.00;;;;;;5139876;27;20721;-72
2023/11/30 09:12:48;;;;;;;22.58;16.50;;;0.60;1.00;;;;;;5147069;27;20252;-76
2023/11/30 09:15:15;;;;;;;23.13;17.00;;;0.60;1.00;;;;;;5135794;27;20318;-72
2023/11/30 09:17:44;;;;;;;21.45;16.42;;;0.60;1.00;;;;;;5120440;27;20588;-70
2023/11/30 09:20:11;;;;;;;32.00;17.92;;;0.70;1.00;;;;;;5124626;27;20245;-72
2023/11/30 09:22:39;;;;;;;28.70;16.80;;;0.80;1.00;;;;;;5123804;27;20234;-77
2023/11/30 09:25:09;;;;;;;23.38;17.30;;;0.80;1.00;;;;;;5122125;27;20341;-72
2023/11/30 09:27:37;;;;;;;26.08;17.90;;;0.90;1.00;;;;;;5134421;27;20295;-71
2023/11/30 09:30:07;;;;;;;24.02;16.48;;;1.00;1.00;;;;;;5134614;27;20988;-72
2023/11/30 09:32:35;;;;;;;27.05;17.73;;;0.90;1.00;;;;;;5140899;27;20245;-73
2023/11/30 09:35:05;;;;;;;23.92;17.02;;;1.00;1.00;;;;;;5144300;27;20283;-73
2023/11/30 09:37:33;;;;;;;21.25;17.40;;;1.10;1.00;;;;;;5146877;27;20234;-73
2023/11/30 09:40:00;;;;;;;22.00;16.85;;;1.20;1.00;;;;;;5146153;27;20782;-74
2023/11/30 09:42:29;;;;;;;25.40;17.30;;;1.20;1.00;;;;;;5135087;27;20330;-73
2023/11/30 09:45:00;;;;;;;24.95;18.40;;;1.20;1.00;;;;;;5122155;27;20423;-74
2023/11/30 09:47:27;;;;;;;28.08;17.15;;;1.20;1.00;;;;;;5128900;27;20257;-75
2023/11/30 09:49:54;;;;;;;27.95;19.45;;;1.20;1.00;;;;;;5121018;27;20253;-76
2023/11/30 09:52:22;;;;;;;22.80;15.10;;;1.20;1.00;;;;;;5124380;27;20407;-74
2023/11/30 09:54:54;;;;;;;24.95;16.80;;;1.10;1.00;;;;;;5127282;27;20318;-77
2023/11/30 09:57:23;;;;;;;21.30;15.88;;;1.20;1.00;;;;;;5123835;27;20288;-78
2023/11/30 09:59:51;;;;;;;22.38;15.48;;;1.20;1.00;;;;;;5132316;27;20271;-83
2023/11/30 10:02:24;;;;;;;21.73;16.23;;;1.20;1.00;;;;;;5128904;27;20339;-79
2023/11/30 10:04:50;;;;;;;19.95;15.98;;;1.20;1.00;;;;;;5139298;27;20309;-78
2023/11/30 10:07:17;;;;;;;19.20;15.50;;;1.20;1.00;;;;;;5125810;27;20262;-78
2023/11/30 10:09:46;;;;;;;21.08;15.60;;;1.10;1.00;;;;;;5141384;27;20295;-76
2023/11/30 10:12:15;;;;;;;29.67;16.77;;;1.20;1.00;;;;;;5137903;27;20341;-76
2023/11/30 10:14:42;;;;;;;26.70;15.43;;;1.20;1.00;;;;;;5136732;27;20246;-80
2023/11/30 10:17:10;;;;;;;19.83;15.50;;;1.30;1.00;;;;;;5147967;27;20242;-77
2023/11/30 10:19:39;;;;;;;22.90;15.52;;;1.30;1.00;;;;;;5146735;27;20249;-80
2023/11/30 10:22:07;;;;;;;18.80;15.43;;;1.30;1.00;;;;;;5148821;27;20235;-81
2023/11/30 10:24:34;;;;;;;22.25;15.80;;;1.30;1.00;;;;;;5152056;27;20284;-82
2023/11/30 10:27:06;;;;;;;18.85;14.77;;;1.30;1.00;;;;;;5151523;27;20271;-82
2023/11/30 10:29:36;;;;;;;19.70;16.10;;;1.30;1.00;;;;;;5132901;27;21023;-78
2023/11/30 10:32:07;;;;;;;21.73;16.25;;;1.30;1.00;;;;;;5126006;27;20235;-77
2023/11/30 10:34:44;;;;;;;36.05;25.33;;;1.30;1.00;;;;;;5128461;27;20238;-76
2023/11/30 10:37:11;;;;;;;19.63;15.18;;;1.40;1.00;;;;;;5127712;27;20238;-77
2023/11/30 10:39:44;;;;;;;19.25;15.30;;;1.70;1.00;;;;;;5124472;27;20235;-77
2023/11/30 10:42:14;;;;;;;17.42;14.50;;;1.90;1.00;;;;;;5143779;27;21195;-80
2023/11/30 10:44:46;;;;;;;25.65;16.83;;;2.10;1.00;;;;;;5147324;27;20337;-81
2023/11/30 10:47:14;;;;;;;21.95;18.15;;;2.30;1.00;;;;;;5150216;27;20273;-82
2023/11/30 10:49:46;;;;;;;22.85;15.43;;;2.40;1.00;;;;;;5150226;27;20749;-80
2023/11/30 10:52:15;;;;;;;18.58;14.57;;;2.60;1.00;;;;;;5149628;27;20663;-80
2023/11/30 10:54:49;;;;;;;17.15;14.15;;;2.80;1.00;;;;;;5151009;27;20238;-81
2023/11/30 10:57:18;;;;;;;19.13;12.88;;;3.00;1.00;;;;;;5107888;27;20230;-80
2023/11/30 10:59:45;;;;;;;17.25;13.90;;;3.40;1.00;;;;;;5131488;27;20230;-80
2023/11/30 11:02:14;;;;;;;20.88;14.35;;;3.60;1.00;;;;;;5108100;27;20230;-81
2023/11/30 11:04:43;;;;;;;18.00;13.15;;;3.50;1.00;;;;;;5123741;27;21016;-75
2023/11/30 11:07:13;;;;;;;17.70;12.82;;;3.50;1.00;;;;;;5143962;27;20265;-75
2023/11/30 11:09:41;;;;;;;17.70;12.23;;;3.70;1.00;;;;;;5144293;27;20226;-76
2023/11/30 11:12:18;;;;;;;15.90;12.40;;;4.20;1.00;;;;;;5144317;27;20234;-76
2023/11/30 11:14:47;;;;;;;19.15;15.02;;;4.40;1.00;;;;;;5146462;27;20621;-76
2023/11/30 11:17:14;;;;;;;14.98;13.13;;;4.20;1.00;;;;;;5133430;27;20266;-74
2023/11/30 11:19:44;;;;;;;15.75;12.55;;;4.10;1.00;;;;;;5127227;27;21833;-76
2023/11/30 11:22:16;;;;;;;11.82;10.63;;;4.00;1.00;;;;;;5126129;27;20761;-76
2023/11/30 11:24:43;;;;;;;15.18;11.85;;;4.20;1.00;;;;;;5146680;27;20324;-75
2023/11/30 11:27:11;;;;;;;13.52;9.68;;;4.20;1.00;;;;;;5148168;27;20720;-76
2023/11/30 11:29:38;;;;;;;15.60;11.55;;;4.70;1.00;;;;;;5145404;27;20294;-77
2023/11/30 11:32:05;;;;;;;11.52;9.80;;;5.00;1.00;;;;;;5144683;27;20245;-77
2023/11/30 11:34:33;;;;;;;12.00;9.70;;;5.00;1.00;;;;;;5147063;27;20316;-78
2023/11/30 11:37:01;;;;;;;14.98;11.35;;;5.50;1.00;;;;;;5137663;27;20238;-76
2023/11/30 11:39:28;;;;;;;11.88;9.80;;;6.50;1.00;;;;;;5148028;27;20253;-78
2023/11/30 11:41:55;;;;;;;11.93;10.13;;;6.30;1.00;;;;;;5146562;27;20236;-76
2023/11/30 11:44:23;;;;;;;12.80;10.15;;;6.00;1.00;;;;;;5139020;27;20266;-77
2023/11/30 11:46:50;;;;;;;11.55;9.23;;;6.00;1.00;;;;;;5145960;27;20326;-76
2023/11/30 11:49:17;;;;;;;9.25;8.35;;;6.90;1.00;;;;;;5150467;27;20232;-75
2023/11/30 11:51:46;;;;;;;12.25;8.93;;;7.00;1.00;;;;;;5146198;27;20299;-79
2023/11/30 11:54:22;;;;;;;12.27;9.63;;;6.20;1.00;;;;;;5149663;27;20949;-76
2023/11/30 11:56:50;;;;;;;10.00;7.57;;;5.90;1.00;;;;;;5136852;27;20230;-76
2023/11/30 11:59:21;;;;;;;10.65;9.50;;;5.60;1.00;;;;;;5149598;27;20233;-77
2023/11/30 12:01:48;;;;;;;9.10;7.63;;;5.80;1.00;;;;;;5152076;27;20371;-78
2023/11/30 12:04:29;;;;;;;13.05;11.75;;;6.30;1.00;;;;;;5144916;27;20322;-77
2023/11/30 12:06:57;;;;;;;9.65;8.45;;;7.00;1.00;;;;;;5151292;27;20747;-76
2023/11/30 12:09:25;;;;;;;9.38;8.10;;;7.40;1.00;;;;;;5144604;27;20231;-76
2023/11/30 12:11:52;;;;;;;8.93;8.13;;;7.50;1.00;;;;;;5131325;27;20237;-76
2023/11/30 12:14:20;;;;;;;9.93;8.93;;;8.40;1.00;;;;;;5152532;27;20454;-70
2023/11/30 12:16:51;;;;;;;8.60;7.63;;;9.20;1.00;;;;;;5149149;27;20460;-73
2023/11/30 12:19:19;;;;;;;8.67;7.40;;;9.60;1.00;;;;;;5151820;27;21308;-75
2023/11/30 12:21:46;;;;;;;9.83;7.63;;;9.20;1.00;;;;;;5143574;27;21280;-74
2023/11/30 12:24:14;;;;;;;8.77;6.90;;;8.00;1.00;;;;;;5148306;27;20570;-73
2023/11/30 12:26:42;;;;;;;8.75;7.20;;;6.90;1.00;;;;;;5147921;27;20473;-77
2023/11/30 12:29:10;;;;;;;15.73;8.93;;;6.20;1.00;;;;;;5149215;27;20371;-70
2023/11/30 12:31:36;;;;;;;11.38;8.45;;;5.60;1.00;;;;;;5148258;27;21070;-72
2023/11/30 12:34:04;;;;;;;7.40;6.40;;;5.10;1.00;;;;;;5144730;27;20263;-72
2023/11/30 12:36:33;;;;;;;7.60;6.38;;;4.70;1.00;;;;;;5146715;27;21100;-73
2023/11/30 12:38:59;;;;;;;9.73;7.68;;;4.50;1.00;;;;;;5142198;27;20242;-73
2023/11/30 12:41:27;;;;;;;7.93;6.90;;;4.20;1.00;;;;;;5135362;27;21239;-74
2023/11/30 12:43:56;;;;;;;8.15;7.25;;;3.90;1.00;;;;;;5140470;27;20337;-73
2023/11/30 12:46:22;;;;;;;8.77;6.95;;;3.90;1.00;;;;;;5123471;27;22425;-75
2023/11/30 12:48:49;;;;;;;9.68;7.28;;;3.70;1.00;;;;;;5122692;27;20243;-75